sensor_id;sensor_type;location;lat;lon;timestamp;P1;durP1;ratioP1;P2;durP2;ratioP2
6910;SDS011;3495;52.346;9.832;2022-08-19T00:02:22;13.15;;;8.70;;
6910;SDS011;3495;52.346;9.832;2022-08-19T00:04:50;12.28;;;8.03;;
6910;SDS011;3495;52.346;9.832;2022-08-19T00:07:19;12.88;;;8.20;;
6910;SDS011;3495;52.346;9.832;2022-08-19T00:12:23;12.28;;;8.83;;
6910;SDS011;3495;52.346;9.832;2022-08-19T00:14:51;12.90;;;8.55;;
6910;SDS011;3495;52.346;9.832;2022-08-19T00:17:21;12.73;;;8.85;;
6910;SDS011;3495;52.346;9.832;2022-08-19T00:22:25;12.15;;;9.13;;
6910;SDS011;3495;52.346;9.832;2022-08-19T00:24:54;13.25;;;8.90;;
6910;SDS011;3495;52.346;9.832;2022-08-19T00:29:58;14.03;;;9.45;;
6910;SDS011;3495;52.346;9.832;2022-08-19T00:35:02;14.20;;;9.65;;
6910;SDS011;3495;52.346;9.832;2022-08-19T00:37:31;14.05;;;9.33;;
6910;SDS011;3495;52.346;9.832;2022-08-19T00:42:35;12.93;;;9.05;;
6910;SDS011;3495;52.346;9.832;2022-08-19T00:47:39;12.82;;;7.55;;
6910;SDS011;3495;52.346;9.832;2022-08-19T00:52:44;12.65;;;8.28;;
6910;SDS011;3495;52.346;9.832;2022-08-19T00:55:14;11.78;;;8.13;;
6910;SDS011;3495;52.346;9.832;2022-08-19T00:57:42;11.95;;;8.88;;
6910;SDS011;3495;52.346;9.832;2022-08-19T01:02:46;12.20;;;8.45;;
6910;SDS011;3495;52.346;9.832;2022-08-19T01:05:16;11.75;;;7.92;;
6910;SDS011;3495;52.346;9.832;2022-08-19T01:10:21;11.38;;;8.40;;
6910;SDS011;3495;52.346;9.832;2022-08-19T01:12:48;11.90;;;7.80;;
6910;SDS011;3495;52.346;9.832;2022-08-19T01:15:16;9.78;;;7.67;;
6910;SDS011;3495;52.346;9.832;2022-08-19T01:20:21;11.80;;;8.80;;
6910;SDS011;3495;52.346;9.832;2022-08-19T01:22:49;9.33;;;7.47;;
6910;SDS011;3495;52.346;9.832;2022-08-19T01:25:18;11.03;;;7.92;;
6910;SDS011;3495;52.346;9.832;2022-08-19T01:30:21;10.70;;;8.43;;
6910;SDS011;3495;52.346;9.832;2022-08-19T01:32:49;10.80;;;7.40;;
6910;SDS011;3495;52.346;9.832;2022-08-19T01:35:18;11.38;;;8.38;;
6910;SDS011;3495;52.346;9.832;2022-08-19T01:40:25;13.53;;;8.48;;
6910;SDS011;3495;52.346;9.832;2022-08-19T01:42:50;11.93;;;8.13;;
6910;SDS011;3495;52.346;9.832;2022-08-19T01:45:19;13.43;;;8.23;;
6910;SDS011;3495;52.346;9.832;2022-08-19T01:50:23;13.60;;;9.10;;
6910;SDS011;3495;52.346;9.832;2022-08-19T01:52:51;14.13;;;7.95;;
6910;SDS011;3495;52.346;9.832;2022-08-19T01:55:20;14.40;;;8.50;;
6910;SDS011;3495;52.346;9.832;2022-08-19T02:00:24;11.78;;;9.13;;
6910;SDS011;3495;52.346;9.832;2022-08-19T02:05:28;12.18;;;8.38;;
6910;SDS011;3495;52.346;9.832;2022-08-19T02:10:31;12.50;;;8.95;;
6910;SDS011;3495;52.346;9.832;2022-08-19T02:13:00;12.15;;;8.43;;
6910;SDS011;3495;52.346;9.832;2022-08-19T02:15:28;11.90;;;8.95;;
6910;SDS011;3495;52.346;9.832;2022-08-19T02:20:32;11.43;;;8.48;;
6910;SDS011;3495;52.346;9.832;2022-08-19T02:23:01;12.85;;;8.40;;
6910;SDS011;3495;52.346;9.832;2022-08-19T02:25:30;11.93;;;8.45;;
6910;SDS011;3495;52.346;9.832;2022-08-19T02:27:58;10.80;;;8.35;;
6910;SDS011;3495;52.346;9.832;2022-08-19T02:33:02;12.53;;;9.35;;
6910;SDS011;3495;52.346;9.832;2022-08-19T02:38:06;16.77;;;9.63;;
6910;SDS011;3495;52.346;9.832;2022-08-19T02:43:29;12.68;;;9.43;;
6910;SDS011;3495;52.346;9.832;2022-08-19T02:48:33;12.88;;;9.65;;
6910;SDS011;3495;52.346;9.832;2022-08-19T02:53:37;11.18;;;8.38;;
6910;SDS011;3495;52.346;9.832;2022-08-19T02:58:42;10.55;;;6.97;;
6910;SDS011;3495;52.346;9.832;2022-08-19T03:03:46;13.85;;;9.30;;
6910;SDS011;3495;52.346;9.832;2022-08-19T03:06:15;11.50;;;8.75;;
6910;SDS011;3495;52.346;9.832;2022-08-19T03:11:20;12.60;;;9.48;;
6910;SDS011;3495;52.346;9.832;2022-08-19T03:16:23;11.08;;;8.53;;
6910;SDS011;3495;52.346;9.832;2022-08-19T03:21:28;10.53;;;7.95;;
6910;SDS011;3495;52.346;9.832;2022-08-19T03:23:55;10.25;;;7.55;;
6910;SDS011;3495;52.346;9.832;2022-08-19T03:26:24;11.70;;;6.95;;
6910;SDS011;3495;52.346;9.832;2022-08-19T03:31:28;13.35;;;7.92;;
6910;SDS011;3495;52.346;9.832;2022-08-19T03:33:56;10.05;;;7.22;;
6910;SDS011;3495;52.346;9.832;2022-08-19T03:39:00;9.20;;;6.37;;
6910;SDS011;3495;52.346;9.832;2022-08-19T03:44:04;13.70;;;8.13;;
6910;SDS011;3495;52.346;9.832;2022-08-19T03:49:08;11.28;;;8.53;;
6910;SDS011;3495;52.346;9.832;2022-08-19T03:54:13;10.90;;;8.23;;
6910;SDS011;3495;52.346;9.832;2022-08-19T03:59:17;11.08;;;7.97;;
6910;SDS011;3495;52.346;9.832;2022-08-19T04:04:20;10.75;;;7.53;;
6910;SDS011;3495;52.346;9.832;2022-08-19T04:06:49;11.40;;;6.78;;
6910;SDS011;3495;52.346;9.832;2022-08-19T04:09:18;13.35;;;6.80;;
6910;SDS011;3495;52.346;9.832;2022-08-19T04:11:47;10.25;;;7.83;;
6910;SDS011;3495;52.346;9.832;2022-08-19T04:16:50;11.95;;;7.95;;
6910;SDS011;3495;52.346;9.832;2022-08-19T04:21:54;11.10;;;8.30;;
6910;SDS011;3495;52.346;9.832;2022-08-19T04:24:22;12.05;;;7.67;;
6910;SDS011;3495;52.346;9.832;2022-08-19T04:32:02;11.00;;;8.25;;
6910;SDS011;3495;52.346;9.832;2022-08-19T04:37:06;12.18;;;7.97;;
6910;SDS011;3495;52.346;9.832;2022-08-19T04:42:12;9.25;;;7.08;;
6910;SDS011;3495;52.346;9.832;2022-08-19T04:44:58;9.50;;;6.60;;
6910;SDS011;3495;52.346;9.832;2022-08-19T04:47:27;10.70;;;6.78;;
6910;SDS011;3495;52.346;9.832;2022-08-19T04:52:31;10.20;;;6.60;;
6910;SDS011;3495;52.346;9.832;2022-08-19T04:57:35;8.50;;;6.53;;
6910;SDS011;3495;52.346;9.832;2022-08-19T05:00:04;8.53;;;5.97;;
6910;SDS011;3495;52.346;9.832;2022-08-19T05:05:08;9.60;;;6.42;;
6910;SDS011;3495;52.346;9.832;2022-08-19T05:07:37;8.33;;;5.60;;
6910;SDS011;3495;52.346;9.832;2022-08-19T05:12:41;10.18;;;6.53;;
6910;SDS011;3495;52.346;9.832;2022-08-19T05:15:10;10.93;;;5.78;;
6910;SDS011;3495;52.346;9.832;2022-08-19T05:20:14;11.12;;;6.85;;
6910;SDS011;3495;52.346;9.832;2022-08-19T05:23:01;10.00;;;6.65;;
6910;SDS011;3495;52.346;9.832;2022-08-19T05:25:29;9.93;;;5.55;;
6910;SDS011;3495;52.346;9.832;2022-08-19T05:27:58;9.98;;;6.42;;
6910;SDS011;3495;52.346;9.832;2022-08-19T05:33:02;10.28;;;6.70;;
6910;SDS011;3495;52.346;9.832;2022-08-19T05:35:30;8.75;;;6.47;;
6910;SDS011;3495;52.346;9.832;2022-08-19T05:40:35;11.25;;;7.87;;
6910;SDS011;3495;52.346;9.832;2022-08-19T05:43:04;10.58;;;6.25;;
6910;SDS011;3495;52.346;9.832;2022-08-19T05:45:32;11.38;;;7.80;;
6910;SDS011;3495;52.346;9.832;2022-08-19T05:50:36;11.48;;;8.03;;
6910;SDS011;3495;52.346;9.832;2022-08-19T05:53:04;10.75;;;7.28;;
6910;SDS011;3495;52.346;9.832;2022-08-19T05:55:33;12.33;;;8.40;;
6910;SDS011;3495;52.346;9.832;2022-08-19T05:58:01;10.65;;;7.50;;
6910;SDS011;3495;52.346;9.832;2022-08-19T06:00:30;11.28;;;7.25;;
6910;SDS011;3495;52.346;9.832;2022-08-19T06:02:58;11.25;;;7.47;;
6910;SDS011;3495;52.346;9.832;2022-08-19T06:08:03;10.60;;;7.42;;
6910;SDS011;3495;52.346;9.832;2022-08-19T06:13:07;12.68;;;8.38;;
6910;SDS011;3495;52.346;9.832;2022-08-19T06:15:35;13.10;;;9.48;;
6910;SDS011;3495;52.346;9.832;2022-08-19T06:18:04;12.30;;;9.05;;
6910;SDS011;3495;52.346;9.832;2022-08-19T06:23:08;15.80;;;11.90;;
6910;SDS011;3495;52.346;9.832;2022-08-19T06:25:36;17.55;;;11.25;;
6910;SDS011;3495;52.346;9.832;2022-08-19T06:30:40;15.98;;;11.30;;
6910;SDS011;3495;52.346;9.832;2022-08-19T06:33:08;15.05;;;10.38;;
6910;SDS011;3495;52.346;9.832;2022-08-19T06:35:39;13.38;;;9.80;;
6910;SDS011;3495;52.346;9.832;2022-08-19T06:40:43;14.93;;;10.55;;
6910;SDS011;3495;52.346;9.832;2022-08-19T06:43:11;13.30;;;9.48;;
6910;SDS011;3495;52.346;9.832;2022-08-19T06:45:40;14.35;;;9.85;;
6910;SDS011;3495;52.346;9.832;2022-08-19T06:48:08;14.03;;;10.00;;
6910;SDS011;3495;52.346;9.832;2022-08-19T06:50:37;13.55;;;8.98;;
6910;SDS011;3495;52.346;9.832;2022-08-19T06:55:41;13.48;;;10.10;;
6910;SDS011;3495;52.346;9.832;2022-08-19T06:58:09;11.88;;;8.45;;
6910;SDS011;3495;52.346;9.832;2022-08-19T07:00:38;12.78;;;8.25;;
6910;SDS011;3495;52.346;9.832;2022-08-19T07:03:06;10.25;;;6.95;;
6910;SDS011;3495;52.346;9.832;2022-08-19T07:08:14;13.83;;;8.28;;
6910;SDS011;3495;52.346;9.832;2022-08-19T07:13:21;11.90;;;7.30;;
6910;SDS011;3495;52.346;9.832;2022-08-19T07:15:49;12.43;;;7.80;;
6910;SDS011;3495;52.346;9.832;2022-08-19T07:21:02;13.10;;;8.88;;
6910;SDS011;3495;52.346;9.832;2022-08-19T07:23:40;9.60;;;6.78;;
6910;SDS011;3495;52.346;9.832;2022-08-19T07:26:09;15.83;;;8.55;;
6910;SDS011;3495;52.346;9.832;2022-08-19T07:31:13;14.75;;;8.90;;
6910;SDS011;3495;52.346;9.832;2022-08-19T07:33:41;13.35;;;8.05;;
6910;SDS011;3495;52.346;9.832;2022-08-19T07:36:10;11.90;;;8.78;;
6910;SDS011;3495;52.346;9.832;2022-08-19T07:41:14;11.63;;;9.35;;
6910;SDS011;3495;52.346;9.832;2022-08-19T07:43:42;11.70;;;8.53;;
6910;SDS011;3495;52.346;9.832;2022-08-19T07:46:11;13.03;;;9.83;;
6910;SDS011;3495;52.346;9.832;2022-08-19T07:48:40;13.32;;;8.95;;
6910;SDS011;3495;52.346;9.832;2022-08-19T07:51:08;11.55;;;9.15;;
6910;SDS011;3495;52.346;9.832;2022-08-19T07:53:37;14.75;;;11.50;;
6910;SDS011;3495;52.346;9.832;2022-08-19T07:56:05;15.68;;;11.85;;
6910;SDS011;3495;52.346;9.832;2022-08-19T07:58:34;15.08;;;11.68;;
6910;SDS011;3495;52.346;9.832;2022-08-19T08:01:03;16.42;;;11.50;;
6910;SDS011;3495;52.346;9.832;2022-08-19T08:03:30;18.95;;;12.07;;
6910;SDS011;3495;52.346;9.832;2022-08-19T08:08:52;15.00;;;12.82;;
6910;SDS011;3495;52.346;9.832;2022-08-19T08:11:38;14.28;;;12.00;;
6910;SDS011;3495;52.346;9.832;2022-08-19T08:14:06;14.78;;;12.65;;
6910;SDS011;3495;52.346;9.832;2022-08-19T08:16:35;17.55;;;12.00;;
6910;SDS011;3495;52.346;9.832;2022-08-19T08:19:04;17.95;;;13.10;;
6910;SDS011;3495;52.346;9.832;2022-08-19T08:24:09;11.65;;;10.30;;
6910;SDS011;3495;52.346;9.832;2022-08-19T08:26:37;16.35;;;10.82;;
6910;SDS011;3495;52.346;9.832;2022-08-19T08:29:05;13.60;;;10.75;;
6910;SDS011;3495;52.346;9.832;2022-08-19T08:31:34;14.23;;;10.80;;
6910;SDS011;3495;52.346;9.832;2022-08-19T08:34:03;14.40;;;10.15;;
6910;SDS011;3495;52.346;9.832;2022-08-19T08:39:06;12.88;;;10.93;;
6910;SDS011;3495;52.346;9.832;2022-08-19T08:41:37;13.98;;;10.28;;
6910;SDS011;3495;52.346;9.832;2022-08-19T08:44:04;12.73;;;11.30;;
6910;SDS011;3495;52.346;9.832;2022-08-19T08:46:34;14.05;;;10.28;;
6910;SDS011;3495;52.346;9.832;2022-08-19T08:49:06;14.28;;;9.58;;
6910;SDS011;3495;52.346;9.832;2022-08-19T08:54:10;11.10;;;8.28;;
6910;SDS011;3495;52.346;9.832;2022-08-19T08:56:38;11.90;;;8.70;;
6910;SDS011;3495;52.346;9.832;2022-08-19T08:59:07;11.57;;;8.35;;
6910;SDS011;3495;52.346;9.832;2022-08-19T09:01:35;10.40;;;8.18;;
6910;SDS011;3495;52.346;9.832;2022-08-19T09:04:03;11.45;;;8.25;;
6910;SDS011;3495;52.346;9.832;2022-08-19T09:06:34;10.80;;;7.75;;
6910;SDS011;3495;52.346;9.832;2022-08-19T09:11:46;10.58;;;8.03;;
6910;SDS011;3495;52.346;9.832;2022-08-19T09:14:08;10.32;;;7.40;;
6910;SDS011;3495;52.346;9.832;2022-08-19T09:16:36;10.10;;;7.58;;
6910;SDS011;3495;52.346;9.832;2022-08-19T09:19:06;12.05;;;6.90;;
6910;SDS011;3495;52.346;9.832;2022-08-19T09:24:09;8.90;;;7.20;;
6910;SDS011;3495;52.346;9.832;2022-08-19T09:26:37;9.40;;;7.20;;
6910;SDS011;3495;52.346;9.832;2022-08-19T09:29:06;7.87;;;6.78;;
6910;SDS011;3495;52.346;9.832;2022-08-19T09:31:34;10.30;;;6.50;;
6910;SDS011;3495;52.346;9.832;2022-08-19T09:34:02;7.55;;;6.42;;
6910;SDS011;3495;52.346;9.832;2022-08-19T09:39:07;8.28;;;6.65;;
6910;SDS011;3495;52.346;9.832;2022-08-19T09:41:35;8.20;;;6.03;;
6910;SDS011;3495;52.346;9.832;2022-08-19T09:44:04;9.08;;;6.20;;
6910;SDS011;3495;52.346;9.832;2022-08-19T09:46:32;8.45;;;6.40;;
6910;SDS011;3495;52.346;9.832;2022-08-19T09:49:01;9.90;;;6.20;;
6910;SDS011;3495;52.346;9.832;2022-08-19T09:54:05;8.25;;;5.70;;
6910;SDS011;3495;52.346;9.832;2022-08-19T09:56:33;10.95;;;6.55;;
6910;SDS011;3495;52.346;9.832;2022-08-19T09:59:02;7.85;;;5.37;;
6910;SDS011;3495;52.346;9.832;2022-08-19T10:01:30;8.23;;;5.40;;
6910;SDS011;3495;52.346;9.832;2022-08-19T10:03:59;10.15;;;5.30;;
6910;SDS011;3495;52.346;9.832;2022-08-19T10:09:03;7.45;;;5.22;;
6910;SDS011;3495;52.346;9.832;2022-08-19T10:11:31;8.65;;;4.97;;
6910;SDS011;3495;52.346;9.832;2022-08-19T10:14:00;8.98;;;4.70;;
6910;SDS011;3495;52.346;9.832;2022-08-19T10:16:28;7.22;;;5.22;;
6910;SDS011;3495;52.346;9.832;2022-08-19T10:18:56;7.25;;;5.55;;
6910;SDS011;3495;52.346;9.832;2022-08-19T10:24:01;7.25;;;4.65;;
6910;SDS011;3495;52.346;9.832;2022-08-19T10:26:30;6.17;;;4.30;;
6910;SDS011;3495;52.346;9.832;2022-08-19T10:28:58;7.80;;;4.87;;
6910;SDS011;3495;52.346;9.832;2022-08-19T10:31:27;7.05;;;4.05;;
6910;SDS011;3495;52.346;9.832;2022-08-19T10:33:55;8.33;;;4.70;;
6910;SDS011;3495;52.346;9.832;2022-08-19T10:36:24;7.22;;;4.22;;
6910;SDS011;3495;52.346;9.832;2022-08-19T10:38:52;6.80;;;3.90;;
6910;SDS011;3495;52.346;9.832;2022-08-19T10:41:21;6.72;;;4.40;;
6910;SDS011;3495;52.346;9.832;2022-08-19T10:43:49;5.90;;;4.03;;
6910;SDS011;3495;52.346;9.832;2022-08-19T10:46:17;8.25;;;4.30;;
6910;SDS011;3495;52.346;9.832;2022-08-19T10:48:45;5.80;;;3.85;;
6910;SDS011;3495;52.346;9.832;2022-08-19T10:51:14;7.03;;;4.40;;
6910;SDS011;3495;52.346;9.832;2022-08-19T10:54:00;6.12;;;4.10;;
6910;SDS011;3495;52.346;9.832;2022-08-19T10:56:29;7.33;;;4.08;;
6910;SDS011;3495;52.346;9.832;2022-08-19T10:59:15;6.00;;;4.05;;
6910;SDS011;3495;52.346;9.832;2022-08-19T11:01:44;7.55;;;4.25;;
6910;SDS011;3495;52.346;9.832;2022-08-19T11:04:12;6.15;;;3.75;;
6910;SDS011;3495;52.346;9.832;2022-08-19T11:06:40;5.22;;;3.40;;
6910;SDS011;3495;52.346;9.832;2022-08-19T11:09:08;6.80;;;4.45;;
6910;SDS011;3495;52.346;9.832;2022-08-19T11:11:37;7.03;;;4.17;;
6910;SDS011;3495;52.346;9.832;2022-08-19T11:14:05;6.90;;;3.30;;
6910;SDS011;3495;52.346;9.832;2022-08-19T11:16:33;5.83;;;3.10;;
6910;SDS011;3495;52.346;9.832;2022-08-19T11:19:02;5.15;;;3.17;;
6910;SDS011;3495;52.346;9.832;2022-08-19T11:21:32;5.50;;;3.22;;
6910;SDS011;3495;52.346;9.832;2022-08-19T11:26:35;5.83;;;3.52;;
6910;SDS011;3495;52.346;9.832;2022-08-19T11:29:03;7.90;;;4.35;;
6910;SDS011;3495;52.346;9.832;2022-08-19T11:31:32;7.75;;;4.42;;
6910;SDS011;3495;52.346;9.832;2022-08-19T11:34:01;8.00;;;4.03;;
6910;SDS011;3495;52.346;9.832;2022-08-19T11:36:28;8.23;;;4.00;;
6910;SDS011;3495;52.346;9.832;2022-08-19T11:38:57;6.12;;;4.12;;
6910;SDS011;3495;52.346;9.832;2022-08-19T11:41:25;8.60;;;3.70;;
6910;SDS011;3495;52.346;9.832;2022-08-19T11:43:54;5.78;;;3.40;;
6910;SDS011;3495;52.346;9.832;2022-08-19T11:46:22;5.47;;;3.20;;
6910;SDS011;3495;52.346;9.832;2022-08-19T11:48:50;6.78;;;3.67;;
6910;SDS011;3495;52.346;9.832;2022-08-19T11:51:19;6.92;;;2.83;;
6910;SDS011;3495;52.346;9.832;2022-08-19T11:53:47;4.83;;;3.75;;
6910;SDS011;3495;52.346;9.832;2022-08-19T11:56:16;5.80;;;3.12;;
6910;SDS011;3495;52.346;9.832;2022-08-19T11:58:44;4.40;;;3.05;;
6910;SDS011;3495;52.346;9.832;2022-08-19T12:01:13;5.80;;;2.77;;
6910;SDS011;3495;52.346;9.832;2022-08-19T12:03:41;4.10;;;3.10;;
6910;SDS011;3495;52.346;9.832;2022-08-19T12:06:10;6.40;;;4.75;;
6910;SDS011;3495;52.346;9.832;2022-08-19T12:08:38;5.70;;;3.08;;
6910;SDS011;3495;52.346;9.832;2022-08-19T12:13:42;5.12;;;2.80;;
6910;SDS011;3495;52.346;9.832;2022-08-19T12:16:12;6.85;;;3.05;;
6910;SDS011;3495;52.346;9.832;2022-08-19T12:18:40;4.97;;;3.08;;
6910;SDS011;3495;52.346;9.832;2022-08-19T12:21:09;7.28;;;2.77;;
6910;SDS011;3495;52.346;9.832;2022-08-19T12:23:38;4.67;;;2.58;;
6910;SDS011;3495;52.346;9.832;2022-08-19T12:26:06;5.58;;;2.80;;
6910;SDS011;3495;52.346;9.832;2022-08-19T12:28:35;6.37;;;2.60;;
6910;SDS011;3495;52.346;9.832;2022-08-19T12:31:03;4.58;;;3.10;;
6910;SDS011;3495;52.346;9.832;2022-08-19T12:33:31;6.35;;;3.05;;
6910;SDS011;3495;52.346;9.832;2022-08-19T12:36:01;4.10;;;2.42;;
6910;SDS011;3495;52.346;9.832;2022-08-19T12:38:29;3.60;;;2.22;;
6910;SDS011;3495;52.346;9.832;2022-08-19T12:40:57;3.70;;;2.70;;
6910;SDS011;3495;52.346;9.832;2022-08-19T12:43:26;4.50;;;2.52;;
6910;SDS011;3495;52.346;9.832;2022-08-19T12:45:54;4.78;;;2.40;;
6910;SDS011;3495;52.346;9.832;2022-08-19T12:48:22;4.65;;;2.60;;
6910;SDS011;3495;52.346;9.832;2022-08-19T12:50:51;4.42;;;2.17;;
6910;SDS011;3495;52.346;9.832;2022-08-19T12:53:19;5.28;;;2.85;;
6910;SDS011;3495;52.346;9.832;2022-08-19T12:55:47;4.40;;;2.60;;
6910;SDS011;3495;52.346;9.832;2022-08-19T12:58:16;6.85;;;3.05;;
6910;SDS011;3495;52.346;9.832;2022-08-19T13:00:44;4.60;;;2.58;;
6910;SDS011;3495;52.346;9.832;2022-08-19T13:03:13;5.12;;;2.50;;
6910;SDS011;3495;52.346;9.832;2022-08-19T13:05:41;4.47;;;2.47;;
6910;SDS011;3495;52.346;9.832;2022-08-19T13:08:09;7.65;;;2.90;;
6910;SDS011;3495;52.346;9.832;2022-08-19T13:10:38;4.78;;;2.90;;
6910;SDS011;3495;52.346;9.832;2022-08-19T13:13:08;4.95;;;2.55;;
6910;SDS011;3495;52.346;9.832;2022-08-19T13:15:36;3.65;;;2.20;;
6910;SDS011;3495;52.346;9.832;2022-08-19T13:18:04;6.30;;;2.70;;
6910;SDS011;3495;52.346;9.832;2022-08-19T13:20:32;5.67;;;2.50;;
6910;SDS011;3495;52.346;9.832;2022-08-19T13:23:01;4.60;;;2.40;;
6910;SDS011;3495;52.346;9.832;2022-08-19T13:25:29;3.83;;;2.17;;
6910;SDS011;3495;52.346;9.832;2022-08-19T13:27:58;5.00;;;2.30;;
6910;SDS011;3495;52.346;9.832;2022-08-19T13:30:26;5.05;;;2.30;;
6910;SDS011;3495;52.346;9.832;2022-08-19T13:33:13;3.30;;;2.08;;
6910;SDS011;3495;52.346;9.832;2022-08-19T13:35:43;4.85;;;2.10;;
6910;SDS011;3495;52.346;9.832;2022-08-19T13:38:11;5.65;;;2.50;;
6910;SDS011;3495;52.346;9.832;2022-08-19T13:40:39;3.62;;;2.20;;
6910;SDS011;3495;52.346;9.832;2022-08-19T13:43:08;4.40;;;1.98;;
6910;SDS011;3495;52.346;9.832;2022-08-19T13:45:36;3.60;;;2.10;;
6910;SDS011;3495;52.346;9.832;2022-08-19T13:48:06;4.08;;;2.20;;
6910;SDS011;3495;52.346;9.832;2022-08-19T13:50:34;5.25;;;2.50;;
6910;SDS011;3495;52.346;9.832;2022-08-19T13:53:02;4.25;;;2.52;;
6910;SDS011;3495;52.346;9.832;2022-08-19T13:55:30;3.00;;;2.00;;
6910;SDS011;3495;52.346;9.832;2022-08-19T13:57:59;4.20;;;2.50;;
6910;SDS011;3495;52.346;9.832;2022-08-19T14:00:31;8.70;;;5.92;;
6910;SDS011;3495;52.346;9.832;2022-08-19T14:02:58;5.45;;;3.58;;
6910;SDS011;3495;52.346;9.832;2022-08-19T14:05:27;5.08;;;2.40;;
6910;SDS011;3495;52.346;9.832;2022-08-19T14:07:55;3.95;;;2.22;;
6910;SDS011;3495;52.346;9.832;2022-08-19T14:10:24;3.40;;;1.87;;
6910;SDS011;3495;52.346;9.832;2022-08-19T14:12:53;3.30;;;2.10;;
6910;SDS011;3495;52.346;9.832;2022-08-19T14:15:21;4.80;;;2.12;;
6910;SDS011;3495;52.346;9.832;2022-08-19T14:17:51;4.03;;;2.00;;
6910;SDS011;3495;52.346;9.832;2022-08-19T14:20:20;3.30;;;1.98;;
6910;SDS011;3495;52.346;9.832;2022-08-19T14:22:48;3.85;;;2.10;;
6910;SDS011;3495;52.346;9.832;2022-08-19T14:25:17;5.03;;;2.10;;
6910;SDS011;3495;52.346;9.832;2022-08-19T14:27:45;5.15;;;3.08;;
6910;SDS011;3495;52.346;9.832;2022-08-19T14:30:14;3.83;;;2.37;;
6910;SDS011;3495;52.346;9.832;2022-08-19T14:32:42;5.78;;;2.22;;
6910;SDS011;3495;52.346;9.832;2022-08-19T14:35:12;4.97;;;2.00;;
6910;SDS011;3495;52.346;9.832;2022-08-19T14:37:40;4.60;;;2.17;;
6910;SDS011;3495;52.346;9.832;2022-08-19T14:40:10;4.30;;;2.30;;
6910;SDS011;3495;52.346;9.832;2022-08-19T14:42:38;3.25;;;2.00;;
6910;SDS011;3495;52.346;9.832;2022-08-19T14:45:08;3.80;;;2.12;;
6910;SDS011;3495;52.346;9.832;2022-08-19T14:47:36;4.28;;;1.90;;
6910;SDS011;3495;52.346;9.832;2022-08-19T14:50:06;3.35;;;2.20;;
6910;SDS011;3495;52.346;9.832;2022-08-19T14:52:34;3.22;;;2.00;;
6910;SDS011;3495;52.346;9.832;2022-08-19T14:57:38;5.58;;;3.15;;
6910;SDS011;3495;52.346;9.832;2022-08-19T15:00:08;4.42;;;2.30;;
6910;SDS011;3495;52.346;9.832;2022-08-19T15:02:37;3.70;;;2.05;;
6910;SDS011;3495;52.346;9.832;2022-08-19T15:05:06;3.80;;;2.22;;
6910;SDS011;3495;52.346;9.832;2022-08-19T15:07:34;3.72;;;2.17;;
6910;SDS011;3495;52.346;9.832;2022-08-19T15:10:03;7.75;;;2.12;;
6910;SDS011;3495;52.346;9.832;2022-08-19T15:12:31;3.47;;;2.22;;
6910;SDS011;3495;52.346;9.832;2022-08-19T15:15:00;4.08;;;2.40;;
6910;SDS011;3495;52.346;9.832;2022-08-19T15:17:28;4.33;;;2.20;;
6910;SDS011;3495;52.346;9.832;2022-08-19T15:19:57;4.53;;;2.02;;
6910;SDS011;3495;52.346;9.832;2022-08-19T15:22:26;3.70;;;2.37;;
6910;SDS011;3495;52.346;9.832;2022-08-19T15:24:54;4.90;;;2.15;;
6910;SDS011;3495;52.346;9.832;2022-08-19T15:27:22;4.20;;;2.00;;
6910;SDS011;3495;52.346;9.832;2022-08-19T15:29:51;3.70;;;2.50;;
6910;SDS011;3495;52.346;9.832;2022-08-19T15:32:19;4.50;;;2.58;;
6910;SDS011;3495;52.346;9.832;2022-08-19T15:34:48;3.95;;;2.10;;
6910;SDS011;3495;52.346;9.832;2022-08-19T15:37:16;4.05;;;2.45;;
6910;SDS011;3495;52.346;9.832;2022-08-19T15:39:45;5.00;;;2.52;;
6910;SDS011;3495;52.346;9.832;2022-08-19T15:42:13;6.85;;;2.47;;
6910;SDS011;3495;52.346;9.832;2022-08-19T15:44:41;5.75;;;2.15;;
6910;SDS011;3495;52.346;9.832;2022-08-19T15:47:10;4.22;;;2.15;;
6910;SDS011;3495;52.346;9.832;2022-08-19T15:49:38;4.50;;;2.20;;
6910;SDS011;3495;52.346;9.832;2022-08-19T15:52:07;4.12;;;2.00;;
6910;SDS011;3495;52.346;9.832;2022-08-19T15:54:35;4.17;;;2.00;;
6910;SDS011;3495;52.346;9.832;2022-08-19T15:57:04;6.12;;;1.90;;
6910;SDS011;3495;52.346;9.832;2022-08-19T15:59:50;3.90;;;2.17;;
6910;SDS011;3495;52.346;9.832;2022-08-19T16:05:28;5.55;;;2.10;;
6910;SDS011;3495;52.346;9.832;2022-08-19T16:08:15;4.53;;;2.33;;
6910;SDS011;3495;52.346;9.832;2022-08-19T16:10:43;5.65;;;2.10;;
6910;SDS011;3495;52.346;9.832;2022-08-19T16:13:11;5.60;;;2.20;;
6910;SDS011;3495;52.346;9.832;2022-08-19T16:15:40;5.35;;;2.35;;
6910;SDS011;3495;52.346;9.832;2022-08-19T16:18:08;4.12;;;2.02;;
6910;SDS011;3495;52.346;9.832;2022-08-19T16:20:37;4.35;;;1.95;;
6910;SDS011;3495;52.346;9.832;2022-08-19T16:23:05;4.42;;;2.00;;
6910;SDS011;3495;52.346;9.832;2022-08-19T16:25:33;5.90;;;2.10;;
6910;SDS011;3495;52.346;9.832;2022-08-19T16:28:02;3.50;;;1.92;;
6910;SDS011;3495;52.346;9.832;2022-08-19T16:30:30;2.98;;;1.70;;
6910;SDS011;3495;52.346;9.832;2022-08-19T16:32:59;4.17;;;2.00;;
6910;SDS011;3495;52.346;9.832;2022-08-19T16:35:27;3.55;;;1.90;;
6910;SDS011;3495;52.346;9.832;2022-08-19T16:37:56;3.72;;;1.90;;
6910;SDS011;3495;52.346;9.832;2022-08-19T16:40:24;4.22;;;2.08;;
6910;SDS011;3495;52.346;9.832;2022-08-19T16:42:52;3.45;;;2.00;;
6910;SDS011;3495;52.346;9.832;2022-08-19T16:45:21;5.00;;;2.98;;
6910;SDS011;3495;52.346;9.832;2022-08-19T16:47:49;4.00;;;2.55;;
6910;SDS011;3495;52.346;9.832;2022-08-19T16:50:18;4.70;;;2.12;;
6910;SDS011;3495;52.346;9.832;2022-08-19T16:52:46;4.00;;;1.90;;
6910;SDS011;3495;52.346;9.832;2022-08-19T16:55:15;2.52;;;1.60;;
6910;SDS011;3495;52.346;9.832;2022-08-19T16:57:43;5.08;;;1.90;;
6910;SDS011;3495;52.346;9.832;2022-08-19T17:00:12;3.02;;;2.17;;
6910;SDS011;3495;52.346;9.832;2022-08-19T17:02:41;5.78;;;2.05;;
6910;SDS011;3495;52.346;9.832;2022-08-19T17:07:45;5.85;;;1.90;;
6910;SDS011;3495;52.346;9.832;2022-08-19T17:10:13;3.77;;;1.72;;
6910;SDS011;3495;52.346;9.832;2022-08-19T17:12:42;3.20;;;1.80;;
6910;SDS011;3495;52.346;9.832;2022-08-19T17:15:10;4.75;;;2.10;;
6910;SDS011;3495;52.346;9.832;2022-08-19T17:17:39;5.85;;;1.90;;
6910;SDS011;3495;52.346;9.832;2022-08-19T17:20:08;3.65;;;1.80;;
6910;SDS011;3495;52.346;9.832;2022-08-19T17:22:36;5.33;;;2.02;;
6910;SDS011;3495;52.346;9.832;2022-08-19T17:25:05;4.15;;;2.00;;
6910;SDS011;3495;52.346;9.832;2022-08-19T17:27:34;4.22;;;2.20;;
6910;SDS011;3495;52.346;9.832;2022-08-19T17:30:03;4.08;;;1.90;;
6910;SDS011;3495;52.346;9.832;2022-08-19T17:32:31;6.53;;;2.02;;
6910;SDS011;3495;52.346;9.832;2022-08-19T17:35:00;3.12;;;1.80;;
6910;SDS011;3495;52.346;9.832;2022-08-19T17:37:29;3.25;;;1.82;;
6910;SDS011;3495;52.346;9.832;2022-08-19T17:39:57;4.37;;;1.80;;
6910;SDS011;3495;52.346;9.832;2022-08-19T17:42:25;3.20;;;1.85;;
6910;SDS011;3495;52.346;9.832;2022-08-19T17:44:54;4.47;;;1.92;;
6910;SDS011;3495;52.346;9.832;2022-08-19T17:47:22;3.85;;;2.00;;
6910;SDS011;3495;52.346;9.832;2022-08-19T17:49:51;7.60;;;3.20;;
6910;SDS011;3495;52.346;9.832;2022-08-19T17:52:19;5.35;;;2.52;;
6910;SDS011;3495;52.346;9.832;2022-08-19T17:54:48;4.08;;;2.10;;
6910;SDS011;3495;52.346;9.832;2022-08-19T17:57:16;8.28;;;4.33;;
6910;SDS011;3495;52.346;9.832;2022-08-19T17:59:46;3.65;;;2.02;;
6910;SDS011;3495;52.346;9.832;2022-08-19T18:02:14;3.90;;;2.40;;
6910;SDS011;3495;52.346;9.832;2022-08-19T18:04:42;4.47;;;1.90;;
6910;SDS011;3495;52.346;9.832;2022-08-19T18:07:11;3.42;;;1.98;;
6910;SDS011;3495;52.346;9.832;2022-08-19T18:09:39;5.85;;;2.20;;
6910;SDS011;3495;52.346;9.832;2022-08-19T18:12:09;3.85;;;1.90;;
6910;SDS011;3495;52.346;9.832;2022-08-19T18:14:36;4.25;;;1.90;;
6910;SDS011;3495;52.346;9.832;2022-08-19T18:17:06;4.72;;;2.05;;
6910;SDS011;3495;52.346;9.832;2022-08-19T18:19:33;4.80;;;2.10;;
6910;SDS011;3495;52.346;9.832;2022-08-19T18:22:01;4.87;;;2.00;;
6910;SDS011;3495;52.346;9.832;2022-08-19T18:24:30;3.92;;;2.05;;
6910;SDS011;3495;52.346;9.832;2022-08-19T18:26:58;4.15;;;2.30;;
6910;SDS011;3495;52.346;9.832;2022-08-19T18:29:27;3.70;;;2.10;;
6910;SDS011;3495;52.346;9.832;2022-08-19T18:31:55;3.50;;;2.00;;